Terminal Aerodrome Forecast
Issued by NWS

Home | Current Version | Previous Version | Text Only | Print | Product List | Glossary On
Versions: 1 2 3 4 5 6 7 8 9 10 11 12 13 14 15 16 17 18
000
FTUS42 KILM 030521
TAFCRE
TAF
KCRE 030521Z 0306/0406 31005KT P6SM SCT250
      TEMPO 0311/0314 36010G18KT
     FM031400 02009KT P6SM FEW100 SCT250
     FM040000 04003KT P6SM BKN100=

USA.gov is the U.S. government's official web portal to all federal, state and local government web resources and services.